createdAt,value
2023-01-27T00:00:29.256Z,100904.56
2023-01-27T00:02:57.144Z,100903.72
2023-01-27T00:05:25.430Z,100898.41
2023-01-27T00:07:53.277Z,100899.44
2023-01-27T00:10:21.215Z,100891.63
2023-01-27T00:13:06.468Z,100887.03
2023-01-27T00:15:34.405Z,100888.22
2023-01-27T00:18:02.263Z,100887.38
2023-01-27T00:20:47.717Z,100882.78
2023-01-27T00:23:33.266Z,100890.09
2023-01-27T00:26:01.401Z,100884.81
2023-01-27T00:28:31.324Z,100880.41
2023-01-27T00:30:59.847Z,100883.81
2023-01-27T00:33:27.046Z,100882.94
2023-01-27T00:35:54.931Z,100885.50
2023-01-27T00:38:22.820Z,100884.66
2023-01-27T00:41:10.737Z,100882.94
2023-01-27T00:43:38.604Z,100881.38
2023-01-27T00:46:06.557Z,100885.97
2023-01-27T00:48:34.518Z,100883.25
2023-01-27T00:51:02.393Z,100883.44
2023-01-27T00:53:30.240Z,100883.59
2023-01-27T00:55:59.116Z,100880.88
2023-01-27T00:58:27.006Z,100887.34
2023-01-27T01:00:54.865Z,100885.63
2023-01-27T01:03:22.745Z,100890.38
2023-01-27T01:05:50.568Z,100884.94
2023-01-27T01:08:18.445Z,100893.25
2023-01-27T01:10:46.311Z,100890.53
2023-01-27T01:13:14.814Z,100885.25
2023-01-27T01:15:42.694Z,100886.44
2023-01-27T01:18:10.641Z,100893.75
2023-01-27T01:20:38.861Z,100891.88
2023-01-27T01:23:06.744Z,100892.91
2023-01-27T01:25:34.597Z,100890.19
2023-01-27T01:28:02.419Z,100893.22
2023-01-27T01:30:30.329Z,100896.94
2023-01-27T01:32:58.311Z,100894.22
2023-01-27T01:35:26.222Z,100896.28
2023-01-27T01:37:54.202Z,100896.44
2023-01-27T01:40:23.559Z,100891.16
2023-01-27T01:42:53.202Z,100898.63
2023-01-27T01:45:21.075Z,100891.47
2023-01-27T01:47:48.949Z,100885.19
2023-01-27T01:50:16.857Z,100902.34
2023-01-27T01:52:44.760Z,100903.38
2023-01-27T01:55:12.869Z,100905.25
2023-01-27T01:57:42.809Z,100901.66
2023-01-27T02:00:10.701Z,100898.09
2023-01-27T02:02:38.642Z,100904.38
2023-01-27T02:05:06.526Z,100903.53
2023-01-27T02:07:34.421Z,100908.94
2023-01-27T02:10:02.320Z,100904.38
2023-01-27T02:12:30.137Z,100900.97
2023-01-27T02:14:58.080Z,100904.69
2023-01-27T02:17:25.958Z,100895.56
2023-01-27T02:19:53.879Z,100884.97
2023-01-27T02:22:21.730Z,100892.28
2023-01-27T02:24:49.703Z,100890.59
2023-01-27T02:27:17.647Z,100894.16
2023-01-27T02:29:45.599Z,100897.03
2023-01-27T02:32:13.468Z,100894.44
2023-01-27T02:34:41.269Z,100884.63
2023-01-27T02:37:09.089Z,100887.31
2023-01-27T02:39:36.935Z,100892.75
2023-01-27T02:42:04.847Z,100886.44
2023-01-27T02:44:32.674Z,100896.47
2023-01-27T02:47:00.600Z,100893.94
2023-01-27T02:49:28.472Z,100895.78
2023-01-27T02:51:56.386Z,100902.22
2023-01-27T02:54:24.220Z,100916.84
2023-01-27T02:56:52.080Z,100914.13
2023-01-27T02:59:19.992Z,100924.28
2023-01-27T03:01:48.162Z,100930.72
2023-01-27T03:04:16.076Z,100931.88
2023-01-27T03:06:43.939Z,100934.78
2023-01-27T03:09:11.790Z,100932.06
2023-01-27T03:11:57.479Z,100935.78
2023-01-27T03:14:42.796Z,100943.25
2023-01-27T03:17:28.303Z,100945.28
2023-01-27T03:19:56.194Z,100946.25
2023-01-27T03:22:24.161Z,100946.44
2023-01-27T03:24:52.021Z,100943.88
2023-01-27T03:27:19.891Z,100943.88
2023-01-27T03:29:57.059Z,100943.88
2023-01-27T03:32:24.900Z,100945.88
2023-01-27T03:34:52.727Z,100943.34
2023-01-27T03:37:38.113Z,100953.38
2023-01-27T03:40:23.604Z,100961.66
2023-01-27T03:43:09.354Z,100958.09
2023-01-27T03:45:54.946Z,100949.44
2023-01-27T03:48:22.925Z,100947.56
2023-01-27T03:50:53.896Z,100957.38
2023-01-27T03:53:21.833Z,100955.69
2023-01-27T03:55:49.728Z,100958.56
2023-01-27T03:58:19.260Z,100949.56
2023-01-27T04:00:47.659Z,100956.03
2023-01-27T04:03:32.917Z,100950.41
2023-01-27T04:06:18.260Z,100956.69
2023-01-27T04:08:46.220Z,100954.84
2023-01-27T04:11:31.961Z,100955.69
2023-01-27T04:13:59.909Z,100956.03
2023-01-27T04:16:29.073Z,100955.47
2023-01-27T04:18:56.986Z,100963.59
2023-01-27T04:21:25.402Z,100957.19
2023-01-27T04:23:53.351Z,100961.75
2023-01-27T04:26:21.262Z,100965.47
2023-01-27T04:28:49.319Z,100960.03
2023-01-27T04:31:17.287Z,100961.91
2023-01-27T04:33:45.285Z,100954.63
2023-01-27T04:36:16.430Z,100956.31
2023-01-27T04:38:44.375Z,100967.88
2023-01-27T04:41:12.302Z,100964.31
2023-01-27T04:43:40.153Z,100971.75
2023-01-27T04:46:08.121Z,100964.63
2023-01-27T04:48:36.054Z,100975.31
2023-01-27T04:51:04.020Z,100979.75
2023-01-27T04:53:32.017Z,100976.34
2023-01-27T04:55:59.993Z,100976.34
2023-01-27T04:58:27.846Z,100980.91
2023-01-27T05:00:55.692Z,100983.78
2023-01-27T05:03:23.582Z,100983.47
2023-01-27T05:05:51.481Z,100979.19
2023-01-27T05:08:19.320Z,100971.22
2023-01-27T05:10:47.188Z,100983.06
2023-01-27T05:13:15.069Z,100979.38
2023-01-27T05:15:42.982Z,100989.38
2023-01-27T05:18:11.017Z,100986.97
2023-01-27T05:20:38.975Z,100991.53
2023-01-27T05:23:24.148Z,100984.41
2023-01-27T05:25:51.998Z,100990.84
2023-01-27T05:28:19.836Z,100990.16
2023-01-27T05:30:47.820Z,100993.88
2023-01-27T05:33:15.748Z,100991.16
2023-01-27T05:35:43.637Z,100990.47
2023-01-27T05:38:11.526Z,100995.03
2023-01-27T05:40:39.388Z,100996.06
2023-01-27T05:43:07.692Z,100996.19
2023-01-27T05:45:35.597Z,100989.91
2023-01-27T05:48:03.487Z,100999.09
2023-01-27T05:50:31.383Z,100994.66
2023-01-27T05:52:59.250Z,101003.94
2023-01-27T05:55:27.167Z,100996.50
2023-01-27T05:57:55.034Z,100995.81
2023-01-27T06:00:22.913Z,100985.97
2023-01-27T06:02:51.035Z,101003.28
2023-01-27T06:05:18.905Z,101002.41
2023-01-27T06:07:46.870Z,101000.84
2023-01-27T06:10:14.818Z,101001.88
2023-01-27T06:12:42.719Z,101013.56
2023-01-27T06:15:10.670Z,101014.72
2023-01-27T06:17:38.615Z,101014.72
2023-01-27T06:20:06.624Z,101016.59
2023-01-27T06:22:34.476Z,101022.16
2023-01-27T06:25:02.393Z,101016.06
2023-01-27T06:27:30.246Z,101016.91
2023-01-27T06:29:58.107Z,101022.34
2023-01-27T06:32:25.942Z,101020.78
2023-01-27T06:34:53.782Z,101028.06
2023-01-27T06:37:21.688Z,101026.03
2023-01-27T06:39:49.581Z,101023.88
2023-01-27T06:42:17.754Z,101024.88
2023-01-27T06:44:45.693Z,101018.47
2023-01-27T06:47:13.723Z,101021.19
2023-01-27T06:49:41.742Z,101034.03
2023-01-27T06:52:09.644Z,101028.59
2023-01-27T06:54:37.484Z,101037.78
2023-01-27T06:57:05.516Z,101033.34
2023-01-27T06:59:33.391Z,101032.34
2023-01-27T07:02:01.234Z,101024.34
2023-01-27T07:04:29.826Z,101032.63
2023-01-27T07:06:57.694Z,101032.34
2023-01-27T07:09:25.584Z,101034.88
2023-01-27T07:11:53.495Z,101039.47
2023-01-27T07:14:21.548Z,101037.78
2023-01-27T07:16:49.476Z,101046.59
2023-01-27T07:19:17.553Z,101049.31
2023-01-27T07:21:45.487Z,101050.31
2023-01-27T07:24:13.377Z,101048.44
2023-01-27T07:26:41.274Z,101053.03
2023-01-27T07:29:09.169Z,101055.75
2023-01-27T07:31:37.161Z,101054.72
2023-01-27T07:34:05.110Z,101051.03
2023-01-27T07:36:32.964Z,101047.47
2023-01-27T07:39:00.795Z,101064.72
2023-01-27T07:41:28.610Z,101066.47
2023-01-27T07:43:56.495Z,101064.72
2023-01-27T07:46:24.535Z,101060.31
2023-01-27T07:48:52.763Z,101066.59
2023-01-27T07:51:20.628Z,101064.91
2023-01-27T07:53:48.496Z,101068.59
2023-01-27T07:56:16.404Z,101073.03
2023-01-27T07:58:44.396Z,101086.63
2023-01-27T08:01:12.293Z,101079.47
2023-01-27T08:03:40.171Z,101089.47
2023-01-27T08:06:08.340Z,101092.31
2023-01-27T08:08:38.028Z,101078.75
2023-01-27T08:11:07.806Z,101091.47
2023-01-27T08:13:35.659Z,101085.19
2023-01-27T08:16:03.550Z,101096.91
2023-01-27T08:18:31.572Z,101092.63
2023-01-27T08:20:59.443Z,101098.06
2023-01-27T08:23:27.264Z,101097.38
2023-01-27T08:25:55.194Z,101089.38
2023-01-27T08:28:23.163Z,101092.22
2023-01-27T08:30:52.069Z,101095.97
2023-01-27T08:33:19.957Z,101095.25
2023-01-27T08:35:47.845Z,101094.94
2023-01-27T08:38:15.657Z,101092.41
2023-01-27T08:40:43.563Z,101097.81
2023-01-27T08:43:11.428Z,101096.97
2023-01-27T08:45:39.356Z,101103.56
2023-01-27T08:48:07.300Z,101111.38
2023-01-27T08:50:35.192Z,101116.66
2023-01-27T08:53:04.345Z,101114.25
2023-01-27T08:55:32.213Z,101116.25
2023-01-27T08:58:00.105Z,101114.53
2023-01-27T09:00:28.085Z,101113.53
2023-01-27T09:02:55.924Z,101114.53
2023-01-27T09:05:23.833Z,101118.97
2023-01-27T09:07:51.767Z,101119.97
2023-01-27T09:10:19.750Z,101122.69
2023-01-27T09:12:47.686Z,101117.25
2023-01-27T09:15:15.791Z,101121.13
2023-01-27T09:17:43.636Z,101114.09
2023-01-27T09:20:12.050Z,101115.13
2023-01-27T09:22:41.320Z,101121.53
2023-01-27T09:25:09.202Z,101111.53
2023-01-27T09:27:39.451Z,101119.53
2023-01-27T09:30:07.675Z,101123.94
2023-01-27T09:32:35.618Z,101122.38
2023-01-27T09:35:03.448Z,101125.25
2023-01-27T09:37:31.340Z,101128.81
2023-01-27T09:39:59.363Z,101123.53
2023-01-27T09:42:36.893Z,101120.81
2023-01-27T09:45:04.786Z,101120.66
2023-01-27T09:47:32.785Z,101117.28
2023-01-27T09:50:00.627Z,101121.34
2023-01-27T09:52:41.845Z,101120.09
2023-01-27T09:55:14.925Z,101129.66
2023-01-27T09:57:42.950Z,101132.03
2023-01-27T10:00:11.016Z,101131.06
2023-01-27T10:02:38.960Z,101132.44
2023-01-27T10:05:06.828Z,101116.72
2023-01-27T10:07:34.685Z,101129.34
2023-01-27T10:10:02.584Z,101127.72
2023-01-27T10:12:31.031Z,101128.28
2023-01-27T10:14:58.950Z,101124.28
2023-01-27T10:17:26.888Z,101126.06
2023-01-27T10:19:54.733Z,101138.06
2023-01-27T10:22:22.559Z,101142.34
2023-01-27T10:24:50.476Z,101140.16
2023-01-27T10:27:18.759Z,101142.19
2023-01-27T10:29:46.581Z,101144.22
2023-01-27T10:32:14.507Z,101152.16
2023-01-27T10:34:42.307Z,101142.06
2023-01-27T10:37:10.309Z,101139.66
2023-01-27T10:39:40.071Z,101143.69
2023-01-27T10:42:07.987Z,101147.72
2023-01-27T10:44:35.790Z,101138.81
2023-01-27T10:47:03.672Z,101135.38
2023-01-27T10:49:31.523Z,101135.50
2023-01-27T10:51:59.427Z,101126.41
2023-01-27T10:54:27.260Z,101139.09
2023-01-27T10:56:55.179Z,101137.19
2023-01-27T10:59:23.083Z,101142.41
2023-01-27T11:01:50.957Z,101135.06
2023-01-27T11:04:18.865Z,101131.41
2023-01-27T11:06:46.829Z,101125.78
2023-01-27T11:09:14.733Z,101125.22
2023-01-27T11:11:45.440Z,101122.13
2023-01-27T11:14:13.327Z,101130.78
2023-01-27T11:16:41.350Z,101122.38
2023-01-27T11:19:09.210Z,101124.56
2023-01-27T11:21:37.055Z,101117.72
2023-01-27T11:24:05.013Z,101128.06
2023-01-27T11:26:32.904Z,101117.66
2023-01-27T11:29:00.798Z,101123.53
2023-01-27T11:31:29.723Z,101119.56
2023-01-27T11:33:58.642Z,101114.44
2023-01-27T11:36:26.536Z,101111.34
2023-01-27T11:38:54.447Z,101113.66
2023-01-27T11:41:22.291Z,101114.84
2023-01-27T11:43:50.137Z,101110.72
2023-01-27T11:46:18.046Z,101120.03
2023-01-27T11:48:45.924Z,101112.03
2023-01-27T11:51:13.977Z,101109.47
2023-01-27T11:53:41.886Z,101120.66
2023-01-27T11:56:09.790Z,101113.78
2023-01-27T11:58:37.922Z,101110.41
2023-01-27T12:01:05.787Z,101113.41
2023-01-27T12:03:33.593Z,101107.31
2023-01-27T12:06:01.418Z,101112.03
2023-01-27T12:08:29.350Z,101104.19
2023-01-27T12:10:57.213Z,101112.47
2023-01-27T12:13:25.186Z,101112.47
2023-01-27T12:15:53.232Z,101102.47
2023-01-27T12:18:21.164Z,101103.31
2023-01-27T12:20:49.293Z,101093.31
2023-01-27T12:23:17.584Z,101089.19
2023-01-27T12:25:45.435Z,101093.63
2023-01-27T12:28:13.309Z,101099.22
2023-01-27T12:30:41.171Z,101095.97
2023-01-27T12:33:09.104Z,101097.25
2023-01-27T12:35:36.934Z,101081.09
2023-01-27T12:38:04.861Z,101087.41
2023-01-27T12:40:32.789Z,101086.72
2023-01-27T12:43:00.806Z,101090.59
2023-01-27T12:45:29.992Z,101091.44
2023-01-27T12:47:57.912Z,101094.13
2023-01-27T12:50:25.687Z,101096.16
2023-01-27T12:52:53.562Z,101088.84
2023-01-27T12:55:21.371Z,101091.28
2023-01-27T12:57:49.231Z,101090.41
2023-01-27T13:00:17.197Z,101089.72
2023-01-27T13:02:45.036Z,101090.59
2023-01-27T13:05:12.960Z,101091.75
2023-01-27T13:07:41.483Z,101094.13
2023-01-27T13:10:09.384Z,101088.19
2023-01-27T13:12:37.242Z,101093.03
2023-01-27T13:15:05.251Z,101098.47
2023-01-27T13:17:33.163Z,101093.88
2023-01-27T13:20:01.148Z,101089.47
2023-01-27T13:22:29.048Z,101086.75
2023-01-27T13:24:56.909Z,101094.91
2023-01-27T13:27:24.774Z,101084.03
2023-01-27T13:29:52.652Z,101086.91
2023-01-27T13:32:20.531Z,101083.34
2023-01-27T13:34:48.374Z,101084.19
2023-01-27T13:37:16.284Z,101088.94
2023-01-27T13:39:44.185Z,101092.63
2023-01-27T13:42:12.047Z,101096.38
2023-01-27T13:44:39.955Z,101097.53
2023-01-27T13:47:07.861Z,101100.38
2023-01-27T13:49:36.222Z,101106.69
2023-01-27T13:52:04.155Z,101097.81
2023-01-27T13:54:31.984Z,101099.69
2023-01-27T13:57:00.107Z,101111.53
2023-01-27T13:59:27.953Z,101113.41
2023-01-27T14:01:55.956Z,101115.25
2023-01-27T14:04:23.867Z,101118.97
2023-01-27T14:06:51.840Z,101124.56
2023-01-27T14:09:19.750Z,101117.53
2023-01-27T14:11:47.702Z,101119.25
2023-01-27T14:14:15.555Z,101121.97
2023-01-27T14:16:43.444Z,101126.66
2023-01-27T14:19:11.253Z,101129.66
2023-01-27T14:21:42.222Z,101128.69
2023-01-27T14:24:16.327Z,101127.13
2023-01-27T14:26:44.212Z,101128.97
2023-01-27T14:29:12.086Z,101132.69
2023-01-27T14:31:40.025Z,101134.69
2023-01-27T14:34:07.951Z,101131.00
2023-01-27T14:36:35.800Z,101131.25
2023-01-27T14:39:03.664Z,101133.00
2023-01-27T14:41:31.542Z,101135.41
2023-01-27T14:43:59.446Z,101132.09
2023-01-27T14:46:27.293Z,101137.56
2023-01-27T14:48:55.140Z,101134.66
2023-01-27T14:51:23.401Z,101147.97
2023-01-27T14:53:51.343Z,101143.84
2023-01-27T14:56:19.212Z,101149.34
2023-01-27T14:58:47.111Z,101158.19
2023-01-27T15:01:15.014Z,101148.78
2023-01-27T15:03:42.876Z,101154.03
2023-01-27T15:06:10.829Z,101153.41
2023-01-27T15:08:38.703Z,101155.72
2023-01-27T15:11:07.025Z,101153.31
2023-01-27T15:13:34.863Z,101151.13
2023-01-27T15:16:02.785Z,101152.72
2023-01-27T15:18:30.734Z,101154.84
2023-01-27T15:21:00.827Z,101153.47
2023-01-27T15:23:28.720Z,101153.00
2023-01-27T15:25:56.743Z,101160.41
2023-01-27T15:28:24.728Z,101157.94
2023-01-27T15:30:52.596Z,101167.44
2023-01-27T15:33:20.504Z,101161.13
2023-01-27T15:35:48.352Z,101158.34
2023-01-27T15:38:16.211Z,101174.25
2023-01-27T15:40:44.048Z,101167.31
2023-01-27T15:43:11.929Z,101169.75
2023-01-27T15:45:41.607Z,101169.97
2023-01-27T15:48:09.544Z,101163.97
2023-01-27T15:50:37.264Z,101164.13
2023-01-27T15:53:06.177Z,101171.88
2023-01-27T15:55:34.671Z,101165.00
2023-01-27T15:58:02.452Z,101171.31
2023-01-27T16:00:30.190Z,101164.00
2023-01-27T16:02:57.944Z,101170.88
2023-01-27T16:05:25.671Z,101169.66
2023-01-27T16:07:53.397Z,101166.59
2023-01-27T16:10:21.121Z,101168.72
2023-01-27T16:12:49.157Z,101172.59
2023-01-27T16:15:16.941Z,101188.72
2023-01-27T16:17:44.775Z,101178.19
2023-01-27T16:20:13.537Z,101176.88
2023-01-27T16:22:41.264Z,101177.72
2023-01-27T16:25:09.082Z,101176.50
2023-01-27T16:27:36.913Z,101179.91
2023-01-27T16:30:05.399Z,101178.66
2023-01-27T16:32:33.146Z,101181.69
2023-01-27T16:35:00.885Z,101181.66
2023-01-27T16:37:29.339Z,101182.38
2023-01-27T16:39:57.243Z,101192.72
2023-01-27T16:42:26.188Z,101199.03
2023-01-27T16:44:54.608Z,101203.59
2023-01-27T16:47:22.346Z,101200.69
2023-01-27T16:49:50.135Z,101208.53
2023-01-27T16:52:18.248Z,101200.53
2023-01-27T16:54:46.012Z,101206.28
2023-01-27T16:57:13.750Z,101196.44
2023-01-27T16:59:41.517Z,101199.06
2023-01-27T17:02:09.333Z,101199.72
2023-01-27T17:04:37.085Z,101197.22
2023-01-27T17:07:04.879Z,101202.75
2023-01-27T17:09:32.862Z,101200.28
2023-01-27T17:12:01.771Z,101199.44
2023-01-27T17:14:31.442Z,101200.44
2023-01-27T17:16:59.730Z,101211.56
2023-01-27T17:19:27.616Z,101202.91
2023-01-27T17:21:55.389Z,101211.47
2023-01-27T17:24:23.283Z,101200.41
2023-01-27T17:26:51.060Z,101208.28
2023-01-27T17:29:18.830Z,101209.84
2023-01-27T17:31:46.585Z,101206.28
2023-01-27T17:34:14.327Z,101218.72
2023-01-27T17:36:42.033Z,101209.94
2023-01-27T17:39:09.754Z,101219.53
2023-01-27T17:41:37.521Z,101214.38
2023-01-27T17:44:05.361Z,101223.41
2023-01-27T17:46:33.226Z,101225.31
2023-01-27T17:49:01.196Z,101225.69
2023-01-27T17:51:28.899Z,101240.38
2023-01-27T17:53:56.642Z,101237.31
2023-01-27T17:56:24.378Z,101232.03
2023-01-27T17:58:52.117Z,101235.22
2023-01-27T18:01:20.054Z,101241.78
2023-01-27T18:03:47.748Z,101243.75
2023-01-27T18:06:15.515Z,101236.47
2023-01-27T18:08:43.226Z,101240.19
2023-01-27T18:11:11.088Z,101246.75
2023-01-27T18:13:38.899Z,101240.16
2023-01-27T18:16:06.828Z,101235.81
2023-01-27T18:18:34.625Z,101240.69
2023-01-27T18:21:02.371Z,101234.63
2023-01-27T18:23:30.221Z,101249.28
2023-01-27T18:25:57.984Z,101242.59
2023-01-27T18:28:25.771Z,101251.78
2023-01-27T18:30:53.870Z,101256.19
2023-01-27T18:33:21.652Z,101263.56
2023-01-27T18:35:49.465Z,101259.00
2023-01-27T18:38:17.325Z,101278.88
2023-01-27T18:40:45.142Z,101277.19
2023-01-27T18:43:12.819Z,101279.94
2023-01-27T18:45:42.157Z,101283.47
2023-01-27T18:48:09.833Z,101290.03
2023-01-27T18:50:37.573Z,101289.28
2023-01-27T18:53:05.274Z,101286.66
2023-01-27T18:55:33.151Z,101292.19
2023-01-27T18:58:00.935Z,101286.09
2023-01-27T19:00:29.571Z,101296.25
2023-01-27T19:02:59.149Z,101282.06
2023-01-27T19:05:27.175Z,101275.22
2023-01-27T19:07:56.219Z,101272.22
2023-01-27T19:10:40.834Z,101275.69
2023-01-27T19:13:08.909Z,101271.13
2023-01-27T19:15:42.305Z,101269.50
2023-01-27T19:18:19.276Z,101271.72
2023-01-27T19:20:47.030Z,101267.34
2023-01-27T19:23:15.371Z,101265.03
2023-01-27T19:25:43.157Z,101259.97
2023-01-27T19:28:11.116Z,101267.91
2023-01-27T19:30:42.566Z,101271.38
2023-01-27T19:33:10.757Z,101278.56
2023-01-27T19:35:38.663Z,101282.09
2023-01-27T19:38:06.539Z,101279.50
2023-01-27T19:40:34.329Z,101278.41
2023-01-27T19:43:05.719Z,101287.81
2023-01-27T19:45:33.709Z,101292.81
2023-01-27T19:48:02.106Z,101286.13
2023-01-27T19:50:31.181Z,101282.53
2023-01-27T19:52:59.047Z,101282.75
2023-01-27T19:55:26.844Z,101289.44
2023-01-27T19:57:54.604Z,101295.53
2023-01-27T20:00:22.605Z,101298.41
2023-01-27T20:02:50.533Z,101294.56
2023-01-27T20:05:18.227Z,101300.50
2023-01-27T20:07:46.070Z,101296.72
2023-01-27T20:10:13.861Z,101294.47
2023-01-27T20:12:41.977Z,101307.59
2023-01-27T20:15:09.775Z,101302.88
2023-01-27T20:17:37.589Z,101313.06
2023-01-27T20:20:05.326Z,101309.25
2023-01-27T20:22:39.692Z,101310.50
2023-01-27T20:25:10.673Z,101312.91
2023-01-27T20:27:41.384Z,101308.38
2023-01-27T20:30:12.053Z,101315.84
2023-01-27T20:32:42.917Z,101318.56
2023-01-27T20:35:10.834Z,101323.94
2023-01-27T20:37:38.732Z,101314.44
2023-01-27T20:40:07.073Z,101317.56
2023-01-27T20:42:34.894Z,101324.81
2023-01-27T20:45:02.682Z,101327.75
2023-01-27T20:47:30.511Z,101327.13
2023-01-27T20:50:01.942Z,101326.81
2023-01-27T20:52:33.079Z,101325.31
2023-01-27T20:55:05.194Z,101332.84
2023-01-27T20:57:32.957Z,101337.97
2023-01-27T21:00:01.552Z,101337.47
2023-01-27T21:02:45.418Z,101338.69
2023-01-27T21:05:13.613Z,101342.78
2023-01-27T21:07:44.105Z,101343.97
2023-01-27T21:10:11.864Z,101338.31
2023-01-27T21:12:42.142Z,101332.03
2023-01-27T21:15:10.475Z,101340.19
2023-01-27T21:17:38.436Z,101339.13
2023-01-27T21:20:06.235Z,101343.19
2023-01-27T21:22:34.876Z,101340.63
2023-01-27T21:25:02.706Z,101348.13
2023-01-27T21:27:30.504Z,101343.84
2023-01-27T21:29:58.291Z,101341.25
2023-01-27T21:32:27.781Z,101335.44
2023-01-27T21:35:03.484Z,101331.34
2023-01-27T21:37:33.802Z,101333.03
2023-01-27T21:40:01.661Z,101339.44
2023-01-27T21:42:47.251Z,101336.34
2023-01-27T21:45:16.858Z,101344.84
2023-01-27T21:47:44.930Z,101348.59
2023-01-27T21:50:14.648Z,101341.72
2023-01-27T21:52:43.015Z,101341.72
2023-01-27T21:55:10.777Z,101340.00
2023-01-27T21:57:38.592Z,101338.63
2023-01-27T22:00:06.469Z,101346.91
2023-01-27T22:02:34.237Z,101347.41
2023-01-27T22:05:02.170Z,101351.13
2023-01-27T22:07:34.282Z,101347.22
2023-01-27T22:10:02.154Z,101351.81
2023-01-27T22:12:30.038Z,101342.94
2023-01-27T22:14:57.831Z,101345.63
2023-01-27T22:17:25.640Z,101350.69
2023-01-27T22:19:53.429Z,101347.44
2023-01-27T22:22:21.240Z,101341.50
2023-01-27T22:24:49.115Z,101353.44
2023-01-27T22:27:16.899Z,101347.28
2023-01-27T22:29:44.807Z,101350.19
2023-01-27T22:32:12.649Z,101350.78
2023-01-27T22:34:40.513Z,101352.53
2023-01-27T22:37:08.397Z,101347.41
2023-01-27T22:39:36.190Z,101345.34
2023-01-27T22:42:03.985Z,101344.50
2023-01-27T22:44:31.799Z,101352.84
2023-01-27T22:46:59.945Z,101342.25
2023-01-27T22:49:27.707Z,101344.13
2023-01-27T22:51:55.423Z,101349.03
2023-01-27T22:54:23.230Z,101352.09
2023-01-27T22:56:50.990Z,101344.91
2023-01-27T22:59:18.698Z,101348.09
2023-01-27T23:01:46.423Z,101353.03
2023-01-27T23:04:14.232Z,101347.72
2023-01-27T23:06:42.020Z,101350.75
2023-01-27T23:09:09.729Z,101345.50
2023-01-27T23:11:37.444Z,101345.66
2023-01-27T23:14:05.141Z,101336.09
2023-01-27T23:16:32.854Z,101340.84
2023-01-27T23:19:00.600Z,101340.13
2023-01-27T23:21:28.354Z,101338.72
2023-01-27T23:23:56.088Z,101337.31
2023-01-27T23:26:23.805Z,101335.75
2023-01-27T23:28:51.563Z,101344.06
2023-01-27T23:31:19.446Z,101345.22
2023-01-27T23:33:48.063Z,101333.50
2023-01-27T23:36:15.775Z,101336.41
2023-01-27T23:38:43.652Z,101331.25
2023-01-27T23:41:12.672Z,101348.59
2023-01-27T23:43:40.432Z,101330.56
2023-01-27T23:46:08.184Z,101329.16
2023-01-27T23:48:35.976Z,101330.19
2023-01-27T23:51:03.695Z,101330.47
2023-01-27T23:53:31.364Z,101327.91
2023-01-27T23:55:59.091Z,101329.22
2023-01-27T23:58:26.829Z,101327.84
